createdAt,value
2022-09-16T00:00:36.534Z,4.97
2022-09-16T00:03:04.870Z,6.23
2022-09-16T00:05:32.865Z,4.50
2022-09-16T00:08:00.517Z,5.50
2022-09-16T00:10:28.259Z,4.17
2022-09-16T00:12:55.910Z,3.87
2022-09-16T00:15:23.551Z,4.87
2022-09-16T00:17:53.561Z,5.20
2022-09-16T00:20:22.518Z,3.97
2022-09-16T00:22:50.151Z,5.10
2022-09-16T00:25:18.002Z,4.60
2022-09-16T00:27:48.370Z,4.00
2022-09-16T00:30:16.371Z,4.70
2022-09-16T00:32:44.061Z,3.87
2022-09-16T00:35:13.056Z,6.10
2022-09-16T00:37:40.714Z,5.63
2022-09-16T00:40:08.941Z,3.97
2022-09-16T00:42:40.769Z,4.73
2022-09-16T00:45:16.259Z,6.50
2022-09-16T00:47:49.427Z,7.00
2022-09-16T00:50:23.166Z,5.60
2022-09-16T00:52:53.398Z,5.10
2022-09-16T00:55:28.053Z,8.43
2022-09-16T00:58:00.781Z,4.03
2022-09-16T01:00:29.049Z,5.73
2022-09-16T01:02:57.170Z,5.13
2022-09-16T01:05:27.292Z,3.77
2022-09-16T01:07:55.847Z,4.40
2022-09-16T01:10:25.329Z,8.77
2022-09-16T01:12:56.899Z,7.00
2022-09-16T01:15:31.419Z,9.50
2022-09-16T01:18:11.047Z,7.17
2022-09-16T01:21:06.729Z,5.00
2022-09-16T01:24:04.092Z,4.50
2022-09-16T01:26:59.650Z,5.03
2022-09-16T01:29:59.346Z,5.70
2022-09-16T01:32:33.541Z,5.30
2022-09-16T01:35:09.228Z,6.37
2022-09-16T01:37:45.180Z,7.60
2022-09-16T01:40:18.302Z,4.03
2022-09-16T01:42:50.975Z,7.70
2022-09-16T01:45:24.987Z,8.30
2022-09-16T01:48:01.083Z,6.23
2022-09-16T01:50:33.541Z,5.30
2022-09-16T01:53:10.975Z,5.40
2022-09-16T01:55:42.787Z,5.97
2022-09-16T01:58:15.591Z,5.07
2022-09-16T02:00:47.332Z,4.00
2022-09-16T02:03:22.333Z,3.03
2022-09-16T02:05:55.143Z,4.30
2022-09-16T02:08:28.630Z,4.47
2022-09-16T02:10:59.655Z,7.00
2022-09-16T02:13:30.866Z,8.20
2022-09-16T02:16:10.450Z,3.30
2022-09-16T02:18:43.491Z,5.23
2022-09-16T02:21:14.541Z,5.23
2022-09-16T02:23:46.916Z,6.13
2022-09-16T02:26:20.438Z,4.80
2022-09-16T02:28:51.751Z,5.47
2022-09-16T02:31:24.298Z,6.43
2022-09-16T02:33:58.212Z,3.57
2022-09-16T02:36:27.797Z,10.50
2022-09-16T02:38:58.738Z,6.53
2022-09-16T02:41:26.573Z,3.87
2022-09-16T02:43:54.738Z,6.83
2022-09-16T02:46:29.314Z,6.43
2022-09-16T02:49:05.643Z,5.83
2022-09-16T02:51:45.291Z,5.27
2022-09-16T02:54:22.640Z,5.43
2022-09-16T02:56:50.612Z,5.90
2022-09-16T02:59:18.924Z,6.80
2022-09-16T03:01:47.873Z,8.60
2022-09-16T03:04:19.165Z,9.87
2022-09-16T03:06:47.898Z,5.13
2022-09-16T03:09:18.003Z,8.87
2022-09-16T03:12:00.610Z,6.67
2022-09-16T03:15:10.530Z,12.90
2022-09-16T03:17:49.659Z,6.13
2022-09-16T03:20:27.362Z,6.10
2022-09-16T03:23:05.249Z,6.33
2022-09-16T03:25:44.179Z,5.00
2022-09-16T03:28:16.442Z,7.70
2022-09-16T03:30:54.300Z,7.00
2022-09-16T03:33:28.104Z,10.77
2022-09-16T03:36:00.851Z,5.17
2022-09-16T03:38:29.924Z,8.13
2022-09-16T03:40:57.973Z,6.30
2022-09-16T03:43:25.557Z,5.50
2022-09-16T03:45:53.213Z,5.50
2022-09-16T03:48:20.912Z,6.00
2022-09-16T03:50:48.568Z,7.47
2022-09-16T03:53:17.616Z,7.23
2022-09-16T03:55:45.242Z,6.30
2022-09-16T03:58:12.888Z,9.97
2022-09-16T04:00:40.514Z,9.33
2022-09-16T04:03:08.338Z,6.00
2022-09-16T04:05:36.001Z,4.63
2022-09-16T04:08:03.933Z,8.93
2022-09-16T04:10:34.785Z,13.30
2022-09-16T04:13:02.533Z,5.73
2022-09-16T04:15:30.244Z,10.57
2022-09-16T04:17:57.896Z,8.03
2022-09-16T04:20:25.536Z,9.53
2022-09-16T04:22:53.346Z,6.50
2022-09-16T04:25:21.037Z,7.33
2022-09-16T04:27:49.995Z,8.33
2022-09-16T04:30:17.869Z,7.17
2022-09-16T04:32:45.508Z,12.37
2022-09-16T04:35:14.156Z,7.80
2022-09-16T04:37:41.834Z,7.70
2022-09-16T04:40:10.346Z,7.60
2022-09-16T04:42:38.044Z,5.97
2022-09-16T04:45:08.469Z,6.83
2022-09-16T04:47:36.142Z,11.17
2022-09-16T04:50:03.795Z,10.10
2022-09-16T04:52:31.565Z,6.93
2022-09-16T04:54:59.205Z,7.77
2022-09-16T04:57:26.859Z,8.80
2022-09-16T04:59:54.473Z,12.80
2022-09-16T05:02:23.589Z,9.93
2022-09-16T05:04:51.299Z,9.20
2022-09-16T05:07:18.994Z,11.30
2022-09-16T05:09:46.864Z,7.30
2022-09-16T05:12:14.530Z,9.00
2022-09-16T05:14:42.123Z,12.20
2022-09-16T05:17:09.822Z,8.90
2022-09-16T05:19:38.803Z,12.63
2022-09-16T05:22:07.305Z,10.70
2022-09-16T05:24:36.525Z,10.03
2022-09-16T05:27:04.523Z,6.90
2022-09-16T05:29:32.205Z,9.17
2022-09-16T05:31:59.829Z,11.10
2022-09-16T05:34:28.692Z,10.67
2022-09-16T05:36:57.852Z,8.67
2022-09-16T05:39:26.235Z,9.83
2022-09-16T05:41:56.492Z,13.20
2022-09-16T05:44:24.237Z,9.50
2022-09-16T05:46:52.116Z,11.30
2022-09-16T05:49:20.853Z,9.10
2022-09-16T05:51:49.574Z,11.63
2022-09-16T05:54:19.559Z,12.67
2022-09-16T05:56:47.867Z,14.57
2022-09-16T05:59:17.337Z,12.93
2022-09-16T06:01:45.414Z,13.40
2022-09-16T06:04:14.790Z,9.27
2022-09-16T06:06:44.163Z,10.73
2022-09-16T06:09:14.075Z,12.77
2022-09-16T06:11:44.998Z,12.43
2022-09-16T06:14:14.084Z,8.93
2022-09-16T06:16:42.171Z,17.10
2022-09-16T06:19:13.604Z,14.00
2022-09-16T06:21:42.008Z,14.83
2022-09-16T06:24:10.144Z,12.50
2022-09-16T06:26:39.379Z,10.70
2022-09-16T06:29:09.343Z,12.03
2022-09-16T06:31:38.052Z,12.33
2022-09-16T06:34:06.605Z,13.93
2022-09-16T06:36:38.532Z,14.43
2022-09-16T06:39:07.525Z,8.63
2022-09-16T06:41:35.745Z,14.63
2022-09-16T06:44:03.738Z,15.57
2022-09-16T06:46:32.807Z,13.10
2022-09-16T06:49:05.321Z,12.60
2022-09-16T06:51:34.581Z,10.40
2022-09-16T06:54:04.652Z,10.67
2022-09-16T06:56:34.058Z,11.17
2022-09-16T06:59:01.700Z,14.33
2022-09-16T07:01:31.251Z,13.50
2022-09-16T07:04:05.353Z,11.63
2022-09-16T07:09:22.473Z,12.97
2022-09-16T07:11:50.378Z,12.17
2022-09-16T07:14:18.046Z,12.13
2022-09-16T07:16:45.872Z,14.17
2022-09-16T07:19:15.171Z,12.63
2022-09-16T07:21:42.870Z,13.13
2022-09-16T07:24:13.330Z,16.67
2022-09-16T07:26:42.656Z,15.80
2022-09-16T07:29:13.639Z,12.67
2022-09-16T07:31:41.372Z,12.87
2022-09-16T07:34:12.106Z,15.20
2022-09-16T07:36:43.458Z,14.37
2022-09-16T07:39:12.540Z,13.33
2022-09-16T07:41:42.154Z,11.70
2022-09-16T07:44:13.131Z,12.90
2022-09-16T07:46:41.171Z,11.70
2022-09-16T07:49:10.186Z,14.30
2022-09-16T07:51:38.055Z,13.33
2022-09-16T07:54:10.570Z,14.80
2022-09-16T07:56:40.242Z,14.53
2022-09-16T07:59:14.294Z,11.53
2022-09-16T08:01:45.631Z,13.93
2022-09-16T08:04:13.734Z,15.37
2022-09-16T08:06:41.802Z,14.13
2022-09-16T08:09:37.651Z,12.93
2022-09-16T08:11:58.776Z,16.27
2022-09-16T08:14:26.877Z,12.03
2022-09-16T08:16:54.578Z,12.30
2022-09-16T08:19:23.255Z,14.17
2022-09-16T08:21:52.196Z,10.80
2022-09-16T08:24:21.410Z,17.10
2022-09-16T08:26:49.124Z,12.90
2022-09-16T08:29:17.257Z,11.93
2022-09-16T08:31:45.301Z,10.33
2022-09-16T08:37:04.839Z,9.87
2022-09-16T08:39:34.083Z,14.73
2022-09-16T08:42:13.430Z,10.53
2022-09-16T08:44:50.575Z,13.13
2022-09-16T08:47:28.559Z,14.47
2022-09-16T08:49:59.725Z,13.60
2022-09-16T08:52:31.942Z,11.60
2022-09-16T08:55:04.455Z,15.07
2022-09-16T08:57:39.562Z,10.37
2022-09-16T09:00:15.058Z,10.60
2022-09-16T09:02:48.765Z,13.97
2022-09-16T09:05:19.951Z,14.37
2022-09-16T09:07:56.635Z,10.60
2022-09-16T09:10:31.572Z,14.47
2022-09-16T09:13:06.641Z,16.10
2022-09-16T09:15:42.687Z,17.63
2022-09-16T09:18:21.796Z,11.00
2022-09-16T09:20:57.881Z,12.03
2022-09-16T09:23:47.190Z,19.10
2022-09-16T09:26:22.288Z,11.90
2022-09-16T09:29:25.507Z,14.17
2022-09-16T09:32:01.186Z,10.83
2022-09-16T09:34:41.757Z,17.30
2022-09-16T09:37:39.249Z,10.97
2022-09-16T09:40:14.709Z,17.43
2022-09-16T09:42:50.825Z,12.53
2022-09-16T09:45:27.934Z,16.10
2022-09-16T09:48:00.760Z,14.83
2022-09-16T09:50:34.644Z,12.97
2022-09-16T09:53:13.456Z,12.80
2022-09-16T09:56:15.814Z,16.63
2022-09-16T09:58:52.078Z,13.20
2022-09-16T10:01:19.852Z,17.73
2022-09-16T10:03:49.442Z,16.53
2022-09-16T10:06:21.235Z,11.50
2022-09-16T10:08:51.476Z,16.93
2022-09-16T10:11:21.345Z,13.90
2022-09-16T10:13:51.951Z,15.50
2022-09-16T10:16:22.699Z,17.20
2022-09-16T10:18:58.785Z,17.17
2022-09-16T10:21:26.871Z,13.80
2022-09-16T10:23:57.243Z,19.73
2022-09-16T10:26:26.047Z,15.53
2022-09-16T10:29:00.681Z,13.73
2022-09-16T10:31:54.991Z,19.17
2022-09-16T10:34:30.396Z,15.77
2022-09-16T10:37:04.016Z,21.43
2022-09-16T10:39:33.233Z,14.30
2022-09-16T10:42:01.463Z,24.87
2022-09-16T10:44:33.114Z,8.00
2022-09-16T10:47:03.143Z,8.53
2022-09-16T10:49:38.529Z,13.17
2022-09-16T10:52:15.390Z,7.10
2022-09-16T10:54:43.127Z,8.53
2022-09-16T10:57:23.157Z,8.90
2022-09-16T11:00:09.561Z,16.80
2022-09-16T11:03:02.306Z,9.97
2022-09-16T11:05:34.547Z,15.33
2022-09-16T11:08:13.977Z,13.50
2022-09-16T11:10:49.079Z,10.57
2022-09-16T11:13:31.392Z,11.83
2022-09-16T11:16:21.053Z,15.17
2022-09-16T11:18:58.205Z,10.67
2022-09-16T11:21:43.660Z,14.73
2022-09-16T11:24:27.031Z,16.83
2022-09-16T11:27:04.391Z,10.40
2022-09-16T11:29:51.912Z,9.03
2022-09-16T11:33:00.810Z,6.13
2022-09-16T11:36:08.241Z,6.37
2022-09-16T11:38:46.167Z,6.73
2022-09-16T11:41:21.627Z,7.30
2022-09-16T11:44:11.706Z,10.93
2022-09-16T11:46:48.309Z,7.40
2022-09-16T11:49:31.240Z,11.00
2022-09-16T11:52:13.897Z,9.93
2022-09-16T11:55:00.945Z,10.20
2022-09-16T11:57:32.108Z,7.77
2022-09-16T12:00:03.818Z,6.47
2022-09-16T12:02:46.611Z,9.50
2022-09-16T12:05:21.501Z,7.57
2022-09-16T12:07:56.725Z,13.40
2022-09-16T12:10:28.812Z,7.23
2022-09-16T12:13:02.251Z,8.10
2022-09-16T12:15:38.369Z,9.50
2022-09-16T12:18:14.736Z,5.40
2022-09-16T12:20:48.250Z,8.23
2022-09-16T12:23:19.546Z,9.27
2022-09-16T12:26:01.831Z,10.17
2022-09-16T12:28:35.822Z,7.27
2022-09-16T12:31:13.590Z,7.53
2022-09-16T12:33:49.416Z,9.47
2022-09-16T12:36:24.621Z,6.60
2022-09-16T12:38:52.430Z,8.73
2022-09-16T12:41:51.512Z,7.43
2022-09-16T12:44:50.201Z,8.63
2022-09-16T12:47:35.589Z,5.70
2022-09-16T12:50:29.472Z,7.23
2022-09-16T12:53:35.293Z,6.13
2022-09-16T12:56:10.024Z,6.33
2022-09-16T12:58:57.327Z,6.13
2022-09-16T13:01:28.169Z,6.67
2022-09-16T13:04:01.566Z,5.00
2022-09-16T13:06:33.613Z,10.30
2022-09-16T13:09:20.915Z,6.23
2022-09-16T13:14:50.303Z,8.43
2022-09-16T13:17:29.661Z,7.47
2022-09-16T13:20:04.143Z,9.37
2022-09-16T13:22:38.716Z,5.33
2022-09-16T13:25:19.443Z,4.83
2022-09-16T13:27:57.143Z,4.37
2022-09-16T13:30:37.105Z,4.53
2022-09-16T13:33:28.005Z,5.40
2022-09-16T13:36:29.559Z,4.63
2022-09-16T13:38:58.892Z,3.20
2022-09-16T13:41:34.243Z,7.83
2022-09-16T13:44:58.308Z,4.80
2022-09-16T13:47:34.295Z,5.00
2022-09-16T13:50:13.517Z,5.17
2022-09-16T13:52:42.637Z,8.53
2022-09-16T13:55:22.143Z,4.87
2022-09-16T13:58:21.588Z,5.00
2022-09-16T14:01:00.716Z,4.10
2022-09-16T14:03:43.276Z,7.13
2022-09-16T14:06:28.389Z,5.23
2022-09-16T14:09:06.335Z,9.47
2022-09-16T14:11:39.751Z,10.60
2022-09-16T14:14:36.126Z,7.50
2022-09-16T14:17:18.490Z,11.43
2022-09-16T14:19:48.100Z,10.20
2022-09-16T14:22:18.511Z,8.70
2022-09-16T14:24:50.343Z,7.17
2022-09-16T14:27:29.927Z,6.40
2022-09-16T14:30:02.256Z,8.10
2022-09-16T14:32:32.929Z,7.03
2022-09-16T14:35:05.337Z,5.30
2022-09-16T14:37:33.469Z,6.60
2022-09-16T14:40:06.239Z,6.10
2022-09-16T14:42:34.125Z,6.63
2022-09-16T14:45:06.277Z,6.77
2022-09-16T14:47:51.304Z,9.30
2022-09-16T14:50:23.519Z,7.17
2022-09-16T14:52:56.629Z,7.83
2022-09-16T14:55:27.346Z,5.60
2022-09-16T14:57:55.472Z,9.17
2022-09-16T15:00:27.395Z,5.13
2022-09-16T15:02:59.357Z,5.67
2022-09-16T15:05:33.321Z,10.63
2022-09-16T15:08:14.978Z,6.90
2022-09-16T15:10:53.695Z,6.37
2022-09-16T15:13:24.013Z,7.23
2022-09-16T15:15:57.021Z,7.40
2022-09-16T15:18:28.620Z,9.23
2022-09-16T15:21:06.747Z,7.80
2022-09-16T15:23:35.990Z,4.80
2022-09-16T15:26:12.866Z,6.63
2022-09-16T15:28:54.189Z,7.00
2022-09-16T15:31:36.160Z,6.53
2022-09-16T15:34:07.224Z,5.10
2022-09-16T15:36:40.826Z,6.30
2022-09-16T15:39:24.420Z,7.20
2022-09-16T15:42:06.028Z,7.57
2022-09-16T15:44:37.295Z,8.03
2022-09-16T15:47:59.080Z,12.10
2022-09-16T15:50:31.288Z,9.13
2022-09-16T15:53:03.254Z,5.13
2022-09-16T15:55:36.313Z,10.63
2022-09-16T15:58:09.120Z,10.60
2022-09-16T16:00:59.233Z,7.47
2022-09-16T16:03:27.627Z,5.03
2022-09-16T16:06:05.305Z,4.87
2022-09-16T16:08:51.024Z,6.10
2022-09-16T16:11:28.397Z,8.33
2022-09-16T16:14:01.139Z,8.50
2022-09-16T16:16:29.696Z,7.63
2022-09-16T16:19:00.251Z,7.87
2022-09-16T16:21:29.374Z,6.07
2022-09-16T16:23:57.177Z,8.70
2022-09-16T16:26:38.200Z,5.47
2022-09-16T16:29:06.026Z,5.77
2022-09-16T16:31:35.033Z,7.27
2022-09-16T16:34:04.119Z,8.87
2022-09-16T16:36:34.239Z,6.67
2022-09-16T16:39:01.968Z,6.03
2022-09-16T16:41:29.781Z,10.87
2022-09-16T16:43:57.564Z,8.90
2022-09-16T16:46:26.995Z,6.93
2022-09-16T16:48:54.771Z,7.80
2022-09-16T16:51:22.504Z,8.40
2022-09-16T16:53:53.093Z,7.87
2022-09-16T16:56:25.933Z,8.07
2022-09-16T16:58:55.386Z,9.03
2022-09-16T17:01:23.335Z,7.50
2022-09-16T17:03:51.169Z,7.47
2022-09-16T17:06:19.300Z,5.23
2022-09-16T17:08:47.091Z,8.37
2022-09-16T17:11:17.929Z,5.10
2022-09-16T17:13:47.407Z,6.60
2022-09-16T17:16:19.431Z,8.90
2022-09-16T17:18:47.922Z,7.70
2022-09-16T17:21:18.601Z,7.20
2022-09-16T17:23:52.902Z,7.63
2022-09-16T17:26:23.154Z,7.70
2022-09-16T17:28:52.496Z,7.73
2022-09-16T17:31:22.333Z,5.20
2022-09-16T17:33:50.116Z,8.63
2022-09-16T17:36:47.162Z,10.03
2022-09-16T17:39:16.410Z,7.47
2022-09-16T17:41:47.485Z,9.37
2022-09-16T17:44:15.839Z,9.93
2022-09-16T17:46:44.199Z,7.83
2022-09-16T17:49:16.414Z,6.47
2022-09-16T17:51:44.437Z,9.70
2022-09-16T17:54:12.310Z,6.50
2022-09-16T17:56:40.992Z,7.40
2022-09-16T17:59:11.021Z,5.70
2022-09-16T18:01:38.914Z,7.63
2022-09-16T18:04:07.014Z,7.60
2022-09-16T18:06:36.513Z,7.23
2022-09-16T18:09:07.234Z,6.20
2022-09-16T18:11:38.085Z,8.23
2022-09-16T18:14:07.901Z,11.80
2022-09-16T18:16:37.080Z,7.83
2022-09-16T18:19:05.753Z,9.93
2022-09-16T18:21:33.769Z,7.63
2022-09-16T18:24:03.564Z,8.27
2022-09-16T18:26:32.500Z,9.73
2022-09-16T18:29:11.225Z,9.07
2022-09-16T18:31:42.643Z,16.97
2022-09-16T18:34:10.829Z,9.07
2022-09-16T18:36:39.374Z,13.23
2022-09-16T18:39:08.810Z,13.97
2022-09-16T18:41:38.631Z,10.30
2022-09-16T18:44:08.559Z,10.60
2022-09-16T18:46:38.067Z,8.50
2022-09-16T18:49:07.966Z,9.77
2022-09-16T18:51:37.800Z,8.50
2022-09-16T18:54:07.462Z,11.80
2022-09-16T18:56:38.939Z,8.47
2022-09-16T18:59:21.016Z,6.97
2022-09-16T19:01:51.935Z,11.37
2022-09-16T19:04:23.359Z,9.13
2022-09-16T19:06:53.611Z,8.87
2022-09-16T19:09:23.723Z,8.13
2022-09-16T19:11:53.990Z,9.80
2022-09-16T19:14:24.244Z,8.80
2022-09-16T19:16:52.234Z,11.13
2022-09-16T19:19:22.507Z,16.43
2022-09-16T19:21:50.469Z,9.93
2022-09-16T19:24:19.822Z,7.23
2022-09-16T19:26:49.056Z,10.03
2022-09-16T19:29:17.841Z,9.97
2022-09-16T19:31:47.380Z,9.40
2022-09-16T19:34:17.108Z,7.60
2022-09-16T19:36:46.143Z,8.90
2022-09-16T19:39:14.553Z,7.70
2022-09-16T19:41:43.190Z,11.27
2022-09-16T19:44:13.883Z,7.13
2022-09-16T19:46:42.727Z,8.10
2022-09-16T19:49:14.315Z,8.37
2022-09-16T19:51:42.190Z,8.50
2022-09-16T19:54:11.676Z,9.40
2022-09-16T19:56:39.459Z,8.83
2022-09-16T19:59:07.355Z,7.57
2022-09-16T20:01:36.750Z,6.97
2022-09-16T20:04:07.165Z,7.60
2022-09-16T20:06:37.122Z,13.67
2022-09-16T20:09:07.280Z,13.93
2022-09-16T20:11:38.385Z,12.93
2022-09-16T20:14:08.323Z,10.17
2022-09-16T20:16:38.847Z,9.17
2022-09-16T20:19:08.678Z,9.63
2022-09-16T20:21:37.875Z,9.07
2022-09-16T20:24:07.824Z,9.50
2022-09-16T20:26:37.340Z,11.97
2022-09-16T20:29:05.536Z,7.73
2022-09-16T20:31:36.309Z,8.60
2022-09-16T20:34:05.087Z,9.23
2022-09-16T20:36:36.935Z,5.40
2022-09-16T20:39:05.573Z,7.97
2022-09-16T20:41:35.231Z,8.70
2022-09-16T20:44:05.045Z,7.10
2022-09-16T20:46:36.749Z,9.30
2022-09-16T20:49:09.402Z,6.83
2022-09-16T20:51:42.252Z,7.13
2022-09-16T20:54:12.535Z,6.53
2022-09-16T20:56:42.645Z,11.27
2022-09-16T20:59:14.992Z,10.60
2022-09-16T21:01:43.543Z,5.90
2022-09-16T21:04:16.306Z,9.13
2022-09-16T21:06:46.101Z,5.80
2022-09-16T21:09:19.460Z,10.80
2022-09-16T21:11:50.206Z,12.20
2022-09-16T21:14:21.579Z,8.73
2022-09-16T21:16:49.718Z,7.73
2022-09-16T21:19:22.847Z,9.77
2022-09-16T21:21:51.402Z,15.67
2022-09-16T21:24:19.497Z,7.03
2022-09-16T21:26:48.457Z,8.30
2022-09-16T21:29:18.370Z,10.53
2022-09-16T21:31:49.088Z,8.67
2022-09-16T21:34:18.984Z,8.50
2022-09-16T21:36:47.252Z,10.17
2022-09-16T21:39:15.908Z,10.67
2022-09-16T21:41:45.123Z,8.60
2022-09-16T21:44:13.442Z,8.33
2022-09-16T21:46:45.409Z,11.17
2022-09-16T21:49:21.484Z,8.43
2022-09-16T21:51:50.166Z,9.03
2022-09-16T21:54:20.345Z,15.07
2022-09-16T21:56:49.733Z,12.43
2022-09-16T21:59:19.571Z,7.53
2022-09-16T22:01:49.369Z,10.50
2022-09-16T22:04:20.551Z,8.20
2022-09-16T22:06:49.909Z,8.93
2022-09-16T22:09:18.931Z,10.50
2022-09-16T22:11:47.477Z,11.97
2022-09-16T22:14:15.658Z,10.77
2022-09-16T22:16:43.738Z,7.50
2022-09-16T22:19:13.932Z,9.33
2022-09-16T22:21:44.882Z,12.00
2022-09-16T22:24:13.037Z,16.07
2022-09-16T22:26:42.982Z,14.43
2022-09-16T22:29:12.481Z,7.50
2022-09-16T22:31:41.917Z,12.10
2022-09-16T22:34:10.097Z,6.90
2022-09-16T22:36:38.920Z,9.03
2022-09-16T22:39:12.324Z,10.47
2022-09-16T22:41:40.098Z,11.60
2022-09-16T22:44:14.668Z,7.67
2022-09-16T22:46:44.778Z,12.23
2022-09-16T22:49:13.240Z,7.47
2022-09-16T22:51:41.178Z,6.63
2022-09-16T22:54:12.731Z,17.27
2022-09-16T22:56:40.527Z,12.97
2022-09-16T22:59:08.939Z,5.77
2022-09-16T23:01:38.892Z,8.73
2022-09-16T23:04:09.082Z,6.67
2022-09-16T23:06:38.429Z,5.77
2022-09-16T23:09:07.008Z,6.47
2022-09-16T23:11:36.801Z,8.37
2022-09-16T23:14:06.401Z,6.57
2022-09-16T23:16:36.744Z,10.10
2022-09-16T23:19:06.716Z,6.17
2022-09-16T23:21:35.588Z,12.23
2022-09-16T23:24:05.036Z,9.10
2022-09-16T23:26:34.348Z,6.33
2022-09-16T23:29:05.584Z,8.63
2022-09-16T23:31:35.860Z,12.80
2022-09-16T23:34:07.566Z,7.07
2022-09-16T23:36:37.877Z,6.03
2022-09-16T23:39:06.283Z,9.67
2022-09-16T23:41:34.975Z,8.73
2022-09-16T23:44:04.626Z,18.97
2022-09-16T23:46:33.369Z,8.50
2022-09-16T23:49:01.718Z,12.47
2022-09-16T23:51:31.797Z,7.10
2022-09-16T23:54:00.393Z,4.87
2022-09-16T23:56:28.360Z,8.67
2022-09-16T23:58:59.648Z,6.03
